Emsdale, Canada
Current Conditions -  °F | °C
As of 1:00 PM on Sunday 23 Nov 2014 (Local Time) from CYQA Reporting Station
Haze Haze  
Wind Chill: 37°   Ceiling: 4100
Heat Index: 43°   Visibility: 4mi
Dew Point: 41°   Wind: 10mph
Humidity: 93%   Direction: 150°SSE
Pressure: 29.88"   Gusts: NA
Location:  45.53°N, 79.32°W
Report Text: CYQA 231800Z AUTO 15009KT 4SM BR BKN041 BKN060 06/05 A2988 RMK PRESFR SLP127
Loading
Personal Weather Stations






























Interactive Weather Map New forecast layout! Learn more

10-Day Weather Forecast

Advertisements
Track Severe Weather on mobile